Time;durP1;ratioP1;P1;durP2;ratioP2;P2;SDS_P1;SDS_P2;PMS_P1;PMS_P2;Temp;Humidity;BMP_temperature;BMP_pressure;BME280_temperature;BME280_humidity;BME280_pressure;Samples;Min_cycle;Max_cycle;Signal;HPM_P1;HPM_P2
2023/01/02 00:00:46;;;;;;;9.83;4.03;;;13.70;99.90;;;;;;5073560;28;20519;-70
2023/01/02 00:03:14;;;;;;;10.23;3.80;;;13.70;99.90;;;;;;5073644;28;20460;-70
2023/01/02 00:05:41;;;;;;;6.57;3.97;;;13.70;99.90;;;;;;5073599;28;20506;-70
2023/01/02 00:08:07;;;;;;;9.50;3.63;;;13.70;99.90;;;;;;5073574;28;20947;-70
2023/01/02 00:10:34;;;;;;;6.60;3.83;;;13.70;99.90;;;;;;5073122;28;20481;-70
2023/01/02 00:13:01;;;;;;;11.97;4.10;;;13.70;99.90;;;;;;5073487;28;20542;-71
2023/01/02 00:15:27;;;;;;;8.63;4.37;;;13.70;99.90;;;;;;5073403;28;20456;-70
2023/01/02 00:17:54;;;;;;;10.40;4.57;;;13.60;99.90;;;;;;5073581;28;20516;-70
2023/01/02 00:20:22;;;;;;;13.40;4.73;;;13.60;99.90;;;;;;5072773;28;20479;-70
2023/01/02 00:22:48;;;;;;;10.10;4.43;;;13.60;99.90;;;;;;5073435;28;20455;-70
2023/01/02 00:25:15;;;;;;;11.33;4.40;;;13.50;99.90;;;;;;5072670;28;20517;-70
2023/01/02 00:27:41;;;;;;;11.23;3.87;;;13.50;99.90;;;;;;5073112;28;20457;-70
2023/01/02 00:30:09;;;;;;;7.67;3.83;;;13.40;99.90;;;;;;5072940;28;20479;-70
2023/01/02 00:32:36;;;;;;;9.47;3.80;;;13.40;99.90;;;;;;5069385;28;20899;-70
2023/01/02 00:35:03;;;;;;;8.27;3.90;;;13.40;99.90;;;;;;5073184;28;20449;-70
2023/01/02 00:37:31;;;;;;;9.23;4.00;;;13.30;99.90;;;;;;5072907;28;20453;-70
2023/01/02 00:39:57;;;;;;;12.80;4.53;;;13.30;99.90;;;;;;5072766;28;20999;-70
2023/01/02 00:42:24;;;;;;;6.83;4.17;;;13.30;99.90;;;;;;5073305;28;20507;-70
2023/01/02 00:44:51;;;;;;;7.50;3.97;;;13.30;99.90;;;;;;5072508;28;20518;-70
2023/01/02 00:47:17;;;;;;;14.47;3.80;;;13.30;99.90;;;;;;5072883;28;20506;-70
2023/01/02 00:49:44;;;;;;;7.20;4.10;;;13.30;99.90;;;;;;5072600;28;21002;-70
2023/01/02 00:52:10;;;;;;;8.20;4.40;;;13.30;99.90;;;;;;5072658;28;20541;-70
2023/01/02 00:54:38;;;;;;;11.37;4.60;;;13.30;99.90;;;;;;5071989;28;20518;-70
2023/01/02 00:57:05;;;;;;;15.57;4.73;;;13.30;99.90;;;;;;5073010;28;20514;-70
2023/01/02 00:59:31;;;;;;;12.73;3.50;;;13.20;99.90;;;;;;5072256;28;20500;-69
2023/01/02 01:01:58;;;;;;;10.20;4.20;;;13.20;99.90;;;;;;5072239;28;20463;-70
2023/01/02 01:04:25;;;;;;;15.33;4.07;;;13.20;99.90;;;;;;5071752;28;20872;-70
2023/01/02 01:06:51;;;;;;;6.07;3.93;;;13.20;99.90;;;;;;5072712;28;20506;-70
2023/01/02 01:09:18;;;;;;;6.00;3.57;;;13.20;99.90;;;;;;5072163;28;20945;-70
2023/01/02 01:11:46;;;;;;;12.47;4.30;;;13.20;99.90;;;;;;5072228;28;20544;-70
2023/01/02 01:14:12;;;;;;;10.33;3.70;;;13.20;99.90;;;;;;5072104;28;20944;-70
2023/01/02 01:16:39;;;;;;;8.70;3.90;;;13.20;99.90;;;;;;5071971;28;20497;-70
2023/01/02 01:19:05;;;;;;;11.00;3.97;;;13.20;99.90;;;;;;5072101;28;20486;-70
2023/01/02 01:21:32;;;;;;;9.13;3.93;;;13.10;99.90;;;;;;5072367;28;20514;-70
2023/01/02 01:23:59;;;;;;;8.57;3.90;;;13.10;99.90;;;;;;5071785;28;20463;-70
2023/01/02 01:26:26;;;;;;;13.20;4.53;;;13.10;99.90;;;;;;5072051;28;20454;-70
2023/01/02 01:28:54;;;;;;;14.93;4.33;;;13.10;99.90;;;;;;5072377;28;20936;-70
2023/01/02 01:31:21;;;;;;;16.43;3.80;;;13.00;99.90;;;;;;5071455;28;20538;-70
2023/01/02 01:33:48;;;;;;;6.50;3.87;;;13.00;99.90;;;;;;5070981;28;20468;-70
2023/01/02 01:36:17;;;;;;;11.40;4.90;;;13.00;99.90;;;;;;5072050;28;20467;-70
2023/01/02 01:38:44;;;;;;;15.33;4.10;;;13.00;99.90;;;;;;5068773;28;20713;-70
2023/01/02 01:41:12;;;;;;;11.00;4.43;;;13.10;99.90;;;;;;5071193;28;20475;-70
2023/01/02 01:43:44;;;;;;;7.90;3.67;;;13.10;99.90;;;;;;5071626;28;20453;-70
2023/01/02 01:46:23;;;;;;;12.93;4.00;;;13.10;99.90;;;;;;5071773;28;20468;-70
2023/01/02 01:48:54;;;;;;;6.67;3.40;;;13.10;99.90;;;;;;5069947;28;20542;-70
2023/01/02 01:51:22;;;;;;;9.10;3.43;;;13.00;99.90;;;;;;5071473;28;20477;-70
2023/01/02 01:53:53;;;;;;;15.77;3.77;;;13.00;99.90;;;;;;5071715;28;20569;-70
2023/01/02 01:56:20;;;;;;;13.90;4.63;;;13.10;99.90;;;;;;5071004;28;20539;-71
2023/01/02 01:58:46;;;;;;;9.80;4.37;;;13.20;99.90;;;;;;5071689;28;20575;-71
2023/01/02 02:01:16;;;;;;;8.43;3.70;;;13.30;99.90;;;;;;5071212;28;20489;-71
2023/01/02 02:03:47;;;;;;;12.13;3.53;;;13.30;99.90;;;;;;5071192;28;20936;-70
2023/01/02 02:06:16;;;;;;;9.80;3.47;;;13.30;99.90;;;;;;5070613;28;20457;-71
2023/01/02 02:08:49;;;;;;;11.67;3.50;;;13.40;99.90;;;;;;5074174;28;21473;-71
2023/01/02 02:11:17;;;;;;;5.30;3.10;;;13.40;99.90;;;;;;5071089;28;20824;-70
2023/01/02 02:13:44;;;;;;;11.00;3.63;;;13.40;99.90;;;;;;5070745;28;20538;-71
2023/01/02 02:16:23;;;;;;;12.37;3.73;;;13.40;99.90;;;;;;5071168;28;20472;-72
2023/01/02 02:19:11;;;;;;;12.17;3.50;;;13.40;99.90;;;;;;5070540;28;20453;-71
2023/01/02 02:22:04;;;;;;;11.53;3.90;;;13.30;99.90;;;;;;5070270;28;20503;-71
2023/01/02 02:25:05;;;;;;;10.30;4.10;;;13.30;99.90;;;;;;5070578;28;20515;-71
2023/01/02 02:27:55;;;;;;;17.23;3.97;;;13.30;99.90;;;;;;5069428;28;20511;-71
2023/01/02 02:30:25;;;;;;;8.80;3.93;;;13.30;99.90;;;;;;5070959;28;20531;-71
2023/01/02 02:33:11;;;;;;;19.30;3.90;;;13.20;99.90;;;;;;5068827;28;20535;-71
2023/01/02 02:35:59;;;;;;;12.33;4.40;;;13.20;99.90;;;;;;5059462;28;20564;-69
2023/01/02 02:38:46;;;;;;;16.33;3.87;;;13.20;99.90;;;;;;5068847;28;20456;-69
2023/01/02 02:41:25;;;;;;;10.87;4.00;;;13.20;99.90;;;;;;5070869;28;20561;-69
2023/01/02 02:44:03;;;;;;;14.87;4.23;;;13.30;99.90;;;;;;5071083;28;20506;-69
2023/01/02 02:46:39;;;;;;;15.27;4.77;;;13.30;99.90;;;;;;5069756;28;20814;-69
2023/01/02 02:49:10;;;;;;;10.90;3.60;;;13.30;99.90;;;;;;5069230;28;20454;-69
2023/01/02 02:51:41;;;;;;;10.07;3.97;;;13.30;99.90;;;;;;5070482;28;20452;-69
2023/01/02 02:54:14;;;;;;;10.20;3.97;;;13.30;99.90;;;;;;5069121;28;20534;-70
2023/01/02 02:56:42;;;;;;;7.63;3.20;;;13.30;99.90;;;;;;5070581;28;21055;-70
2023/01/02 02:59:10;;;;;;;19.50;4.10;;;13.30;99.90;;;;;;5070835;28;20995;-70
2023/01/02 03:01:38;;;;;;;8.77;4.30;;;13.30;99.90;;;;;;5069820;28;20450;-70
2023/01/02 03:04:15;;;;;;;10.67;4.10;;;13.20;99.90;;;;;;5069870;28;20463;-70
2023/01/02 03:06:54;;;;;;;9.43;3.43;;;13.20;99.90;;;;;;5070244;28;20462;-70
2023/01/02 03:09:32;;;;;;;10.80;4.00;;;13.20;99.90;;;;;;5070408;28;20479;-70
2023/01/02 03:12:08;;;;;;;9.90;3.90;;;13.10;99.90;;;;;;5067255;28;20531;-70
2023/01/02 03:14:43;;;;;;;21.87;4.20;;;13.10;99.90;;;;;;5070377;28;20459;-70
2023/01/02 03:17:19;;;;;;;20.53;4.20;;;13.00;99.90;;;;;;5070167;28;20458;-70
2023/01/02 03:19:52;;;;;;;9.80;3.47;;;13.00;99.90;;;;;;5068201;28;20542;-70
2023/01/02 03:22:21;;;;;;;9.00;3.67;;;13.00;99.90;;;;;;5070693;28;20461;-70
2023/01/02 03:24:52;;;;;;;15.27;3.83;;;13.00;99.90;;;;;;5068255;28;20448;-70
2023/01/02 03:27:24;;;;;;;11.30;3.50;;;13.00;99.90;;;;;;5070184;28;20505;-69
2023/01/02 03:29:57;;;;;;;9.80;3.23;;;13.00;99.90;;;;;;5064247;28;20545;-70
2023/01/02 03:32:30;;;;;;;10.07;4.17;;;13.00;99.90;;;;;;5064461;28;20488;-70
2023/01/02 03:34:58;;;;;;;18.10;4.23;;;13.10;99.90;;;;;;5063212;28;20459;-69
2023/01/02 03:37:29;;;;;;;11.03;3.50;;;13.10;99.90;;;;;;5069968;28;20453;-70
2023/01/02 03:40:00;;;;;;;12.40;4.90;;;13.10;99.90;;;;;;5070421;28;20533;-70
2023/01/02 03:42:29;;;;;;;16.97;4.10;;;13.10;99.90;;;;;;5069908;28;21137;-70
2023/01/02 03:45:02;;;;;;;6.83;3.67;;;13.00;99.90;;;;;;5069975;28;20530;-70
2023/01/02 03:47:36;;;;;;;18.33;4.50;;;13.00;99.90;;;;;;5070108;28;20808;-71
2023/01/02 03:50:08;;;;;;;11.70;3.50;;;13.10;99.90;;;;;;5069722;28;20982;-71
2023/01/02 03:52:35;;;;;;;10.90;3.43;;;13.10;99.90;;;;;;5069771;28;20534;-71
2023/01/02 03:55:02;;;;;;;16.73;4.07;;;13.00;99.90;;;;;;5070334;28;20455;-71
2023/01/02 03:57:35;;;;;;;11.00;3.50;;;13.00;99.90;;;;;;5069683;28;20953;-71
2023/01/02 04:00:07;;;;;;;12.13;3.23;;;13.00;99.90;;;;;;5069606;28;21016;-71
2023/01/02 04:02:42;;;;;;;13.00;3.50;;;13.00;99.90;;;;;;5069993;28;20451;-71
2023/01/02 04:05:15;;;;;;;12.60;3.93;;;13.10;99.90;;;;;;5071653;28;20464;-71
2023/01/02 04:07:49;;;;;;;11.67;3.30;;;13.10;99.90;;;;;;5073757;28;20540;-70
2023/01/02 04:10:16;;;;;;;12.77;3.60;;;13.10;99.90;;;;;;5073993;28;20561;-71
2023/01/02 04:12:47;;;;;;;7.30;3.50;;;13.20;99.90;;;;;;5073316;28;20479;-70
2023/01/02 04:15:17;;;;;;;19.90;4.07;;;13.30;99.90;;;;;;5071673;28;20836;-71
2023/01/02 04:17:56;;;;;;;12.63;4.20;;;13.40;99.90;;;;;;5072554;28;20457;-70
2023/01/02 04:20:26;;;;;;;17.87;3.57;;;13.50;99.90;;;;;;5073157;28;20479;-70
2023/01/02 04:22:57;;;;;;;14.30;3.60;;;13.50;99.90;;;;;;5071816;28;20442;-70
2023/01/02 04:25:29;;;;;;;13.00;3.83;;;13.50;99.90;;;;;;5073265;28;21032;-71
2023/01/02 04:28:00;;;;;;;14.97;3.43;;;13.40;99.90;;;;;;5073334;28;20932;-71
2023/01/02 04:30:29;;;;;;;7.47;3.20;;;13.40;99.90;;;;;;5072782;28;20469;-71
2023/01/02 04:32:59;;;;;;;11.50;3.70;;;13.30;99.90;;;;;;5067711;28;20484;-70
2023/01/02 04:35:27;;;;;;;12.10;3.87;;;13.30;99.90;;;;;;5072892;28;20453;-71
2023/01/02 04:37:53;;;;;;;11.33;3.50;;;13.30;99.90;;;;;;5073442;28;20448;-71
2023/01/02 04:40:24;;;;;;;11.90;3.60;;;13.20;99.90;;;;;;5073053;28;20472;-71
2023/01/02 04:42:51;;;;;;;8.03;3.47;;;13.20;99.90;;;;;;5072475;28;20547;-70
2023/01/02 04:45:17;;;;;;;11.40;3.57;;;13.20;99.90;;;;;;5072545;28;20512;-71
2023/01/02 04:47:46;;;;;;;10.27;3.00;;;13.10;99.90;;;;;;5072930;28;20479;-70
2023/01/02 04:50:15;;;;;;;21.63;4.60;;;13.10;99.90;;;;;;5072770;28;20528;-71
2023/01/02 04:52:42;;;;;;;7.60;3.50;;;13.20;99.90;;;;;;5072950;28;20510;-71
2023/01/02 04:55:09;;;;;;;7.97;3.40;;;13.20;99.90;;;;;;5072661;28;20461;-71
2023/01/02 04:57:36;;;;;;;11.27;3.80;;;13.20;99.90;;;;;;5072726;28;20877;-71
2023/01/02 05:00:03;;;;;;;16.27;3.07;;;13.20;99.90;;;;;;5072996;28;20523;-71
2023/01/02 05:02:34;;;;;;;9.30;2.83;;;13.20;99.90;;;;;;5072245;28;20465;-71
2023/01/02 05:05:01;;;;;;;11.50;3.47;;;13.20;99.90;;;;;;5072179;28;20501;-71
2023/01/02 05:07:29;;;;;;;17.47;3.40;;;13.30;99.90;;;;;;5072505;28;20456;-71
2023/01/02 05:09:55;;;;;;;10.03;3.43;;;13.30;99.90;;;;;;5072449;28;20475;-71
2023/01/02 05:12:22;;;;;;;10.20;2.93;;;13.30;99.90;;;;;;5072607;28;20932;-71
2023/01/02 05:14:48;;;;;;;12.83;3.70;;;13.30;99.90;;;;;;5072451;28;20452;-71
2023/01/02 05:17:15;;;;;;;14.20;3.83;;;13.40;99.90;;;;;;5071061;28;20536;-71
2023/01/02 05:19:42;;;;;;;11.87;3.80;;;13.40;99.90;;;;;;5071972;28;20529;-71
2023/01/02 05:24:56;;;;;;;5.83;4.00;;;13.40;99.90;;;;;;5067269;28;20924;-71
2023/01/02 05:27:23;;;;;;;14.70;4.90;;;13.30;99.90;;;;;;5071963;28;20461;-71
2023/01/02 05:29:50;;;;;;;12.03;3.60;;;13.30;99.90;;;;;;5072115;28;20548;-72
2023/01/02 05:32:16;;;;;;;13.63;4.20;;;13.30;99.90;;;;;;5071945;28;20454;-71
2023/01/02 05:34:43;;;;;;;9.73;3.83;;;13.30;99.90;;;;;;5071464;28;20480;-71
2023/01/02 05:37:09;;;;;;;11.30;3.83;;;13.30;99.90;;;;;;5072499;28;20879;-71
2023/01/02 05:39:36;;;;;;;13.27;3.67;;;13.20;99.90;;;;;;5071733;28;20480;-71
2023/01/02 05:42:04;;;;;;;7.80;3.50;;;13.20;99.90;;;;;;5068082;28;20461;-71
2023/01/02 05:44:31;;;;;;;14.47;4.63;;;13.30;99.90;;;;;;5071532;28;20445;-71
2023/01/02 05:46:58;;;;;;;14.80;3.43;;;13.30;99.90;;;;;;5071804;28;20889;-71
2023/01/02 05:49:24;;;;;;;12.73;3.33;;;13.30;99.90;;;;;;5071873;28;20542;-71
2023/01/02 05:51:51;;;;;;;11.23;3.63;;;13.30;99.90;;;;;;5071075;28;20449;-71
2023/01/02 05:54:17;;;;;;;13.40;3.60;;;13.30;99.90;;;;;;5071227;28;20534;-71
2023/01/02 05:56:44;;;;;;;10.57;3.93;;;13.30;99.90;;;;;;5071488;28;20507;-72
2023/01/02 05:59:13;;;;;;;16.33;3.53;;;13.30;99.90;;;;;;5071492;28;20534;-71
2023/01/02 06:01:40;;;;;;;10.63;4.00;;;13.30;99.90;;;;;;5071415;28;20506;-71
2023/01/02 06:04:07;;;;;;;16.53;3.57;;;13.20;99.90;;;;;;5071563;28;20950;-71
2023/01/02 06:06:36;;;;;;;14.73;3.80;;;13.20;99.90;;;;;;5071653;28;20445;-71
2023/01/02 06:09:05;;;;;;;20.73;3.90;;;13.20;99.90;;;;;;5071946;28;20451;-70
2023/01/02 06:11:32;;;;;;;11.33;3.53;;;13.10;99.90;;;;;;5070890;28;20507;-70
2023/01/02 06:13:59;;;;;;;16.47;3.70;;;13.10;99.90;;;;;;5070969;28;21009;-70
2023/01/02 06:16:27;;;;;;;12.13;4.10;;;13.10;99.90;;;;;;5070940;28;20456;-69
2023/01/02 06:18:53;;;;;;;11.20;4.20;;;13.10;99.90;;;;;;5068585;28;20529;-69
2023/01/02 06:21:22;;;;;;;12.70;4.10;;;13.10;99.90;;;;;;5067109;28;21165;-70
2023/01/02 06:23:53;;;;;;;7.50;3.80;;;13.10;99.90;;;;;;5068358;28;20519;-69
2023/01/02 06:26:20;;;;;;;16.10;3.17;;;13.20;99.90;;;;;;5070906;28;20459;-69
2023/01/02 06:28:50;;;;;;;10.10;4.07;;;13.20;99.90;;;;;;5070920;28;20469;-69
2023/01/02 06:31:18;;;;;;;20.47;3.70;;;13.20;99.90;;;;;;5071179;28;20468;-70
2023/01/02 06:33:47;;;;;;;9.57;3.60;;;13.20;99.90;;;;;;5070553;28;20537;-69
2023/01/02 06:36:15;;;;;;;14.00;4.23;;;13.20;99.90;;;;;;5070088;28;20516;-69
2023/01/02 06:38:42;;;;;;;13.30;3.80;;;13.20;99.90;;;;;;5069849;28;20453;-69
2023/01/02 06:41:09;;;;;;;16.00;3.90;;;13.20;99.90;;;;;;5063874;28;20481;-69
2023/01/02 06:43:41;;;;;;;12.93;3.53;;;13.20;99.90;;;;;;5069805;28;20461;-70
2023/01/02 06:46:08;;;;;;;10.47;3.97;;;13.20;99.90;;;;;;5070873;28;20515;-69
2023/01/02 06:48:34;;;;;;;13.27;4.00;;;13.20;99.90;;;;;;5070606;28;20463;-69
2023/01/02 06:51:05;;;;;;;11.40;3.83;;;13.10;99.90;;;;;;5067692;28;20539;-71
2023/01/02 06:53:33;;;;;;;11.77;3.30;;;13.10;99.90;;;;;;5073112;28;21004;-70
2023/01/02 06:56:00;;;;;;;20.33;3.60;;;13.10;99.90;;;;;;5070356;28;20449;-70
2023/01/02 06:58:30;;;;;;;14.17;4.83;;;13.10;99.90;;;;;;5070810;28;20970;-71
2023/01/02 07:01:01;;;;;;;16.80;3.90;;;13.00;99.90;;;;;;5067351;28;20526;-70
2023/01/02 07:03:28;;;;;;;12.67;3.53;;;13.00;99.90;;;;;;5069027;28;20454;-71
2023/01/02 07:05:58;;;;;;;10.50;4.33;;;13.10;99.90;;;;;;5070015;28;20449;-70
2023/01/02 07:08:26;;;;;;;11.00;3.80;;;13.10;99.90;;;;;;5070310;28;20465;-70
2023/01/02 07:10:53;;;;;;;15.50;3.67;;;13.00;99.90;;;;;;5070637;28;20477;-70
2023/01/02 07:13:20;;;;;;;15.23;3.93;;;13.00;99.90;;;;;;5070440;28;20507;-71
2023/01/02 07:15:46;;;;;;;16.90;4.07;;;13.00;99.90;;;;;;5070292;28;20455;-70
2023/01/02 07:18:13;;;;;;;23.50;4.67;;;12.90;99.90;;;;;;5070076;28;20462;-70
2023/01/02 07:20:39;;;;;;;10.47;3.00;;;12.90;99.90;;;;;;5069681;28;20538;-70
2023/01/02 07:23:06;;;;;;;9.57;3.47;;;12.90;99.90;;;;;;5068777;28;20468;-70
2023/01/02 07:25:34;;;;;;;17.87;3.77;;;13.00;99.90;;;;;;5065302;28;20498;-70
2023/01/02 07:28:01;;;;;;;14.17;3.90;;;13.00;99.90;;;;;;5066758;28;20982;-70
2023/01/02 07:30:27;;;;;;;16.00;4.00;;;13.10;99.90;;;;;;5066252;28;20499;-70
2023/01/02 07:32:54;;;;;;;13.47;4.83;;;13.10;99.90;;;;;;5066056;28;20447;-70
2023/01/02 07:35:20;;;;;;;18.37;4.63;;;13.10;99.90;;;;;;5065929;28;21000;-70
2023/01/02 07:37:47;;;;;;;8.30;3.53;;;13.00;99.90;;;;;;5066551;28;20452;-70
2023/01/02 07:40:14;;;;;;;16.10;3.53;;;12.90;99.90;;;;;;5068704;28;20475;-70
2023/01/02 07:42:42;;;;;;;17.63;3.90;;;12.90;99.90;;;;;;5071201;28;20456;-70
2023/01/02 07:45:09;;;;;;;13.30;3.93;;;12.90;99.90;;;;;;5070154;28;20507;-69
2023/01/02 07:47:36;;;;;;;16.90;4.33;;;12.80;99.90;;;;;;5070173;28;20804;-70
2023/01/02 07:50:02;;;;;;;24.37;4.93;;;12.80;99.90;;;;;;5069850;28;20473;-70
2023/01/02 07:52:29;;;;;;;19.60;3.80;;;12.80;99.90;;;;;;5070263;28;20448;-71
2023/01/02 07:54:56;;;;;;;10.30;4.00;;;12.70;99.90;;;;;;5069783;28;20487;-70
2023/01/02 07:57:22;;;;;;;12.97;3.60;;;12.70;99.90;;;;;;5070438;28;20458;-69
2023/01/02 07:59:50;;;;;;;14.47;3.20;;;12.70;99.90;;;;;;5070099;28;20487;-69
2023/01/02 08:02:17;;;;;;;12.20;3.80;;;12.70;99.90;;;;;;5068069;28;20451;-69
2023/01/02 08:04:44;;;;;;;11.80;3.57;;;12.70;99.90;;;;;;5068880;28;20444;-69
2023/01/02 08:07:10;;;;;;;11.80;3.40;;;12.70;99.90;;;;;;5070317;28;20967;-69
2023/01/02 08:09:37;;;;;;;9.70;3.77;;;12.70;99.90;;;;;;5069527;28;20482;-69
2023/01/02 08:12:04;;;;;;;13.70;3.63;;;12.70;99.90;;;;;;5070343;28;20499;-69
2023/01/02 08:14:31;;;;;;;15.03;3.53;;;12.70;99.90;;;;;;5069489;28;21028;-70
2023/01/02 08:16:59;;;;;;;11.33;3.73;;;12.70;99.90;;;;;;5069840;28;20955;-69
2023/01/02 08:19:26;;;;;;;18.60;4.10;;;12.70;99.90;;;;;;5069109;28;20483;-70
2023/01/02 08:21:52;;;;;;;12.03;3.47;;;12.70;99.90;;;;;;5068842;28;20506;-69
2023/01/02 08:24:19;;;;;;;8.67;4.13;;;12.70;99.90;;;;;;5069733;28;20470;-69
2023/01/02 08:26:45;;;;;;;15.93;3.70;;;12.80;99.90;;;;;;5069919;28;20516;-69
2023/01/02 08:29:12;;;;;;;25.87;4.13;;;12.80;99.90;;;;;;5069813;28;20503;-69
2023/01/02 08:31:39;;;;;;;19.00;3.77;;;12.80;99.90;;;;;;5069060;28;20520;-70
2023/01/02 08:34:07;;;;;;;13.80;3.20;;;12.80;99.90;;;;;;5069137;28;21052;-70
2023/01/02 08:36:33;;;;;;;18.60;3.57;;;12.80;99.90;;;;;;5069434;28;20448;-69
2023/01/02 08:39:00;;;;;;;15.03;4.23;;;12.80;99.90;;;;;;5069383;28;20470;-69
2023/01/02 08:41:31;;;;;;;16.00;4.80;;;12.80;99.90;;;;;;5069657;28;20459;-69
2023/01/02 08:43:57;;;;;;;18.10;3.93;;;12.80;99.90;;;;;;5069260;28;20449;-71
2023/01/02 08:46:24;;;;;;;22.10;4.83;;;12.80;99.90;;;;;;5069056;28;20521;-69
2023/01/02 08:48:51;;;;;;;16.57;4.37;;;12.80;99.90;;;;;;5069439;28;20959;-70
2023/01/02 08:51:19;;;;;;;15.97;3.50;;;12.80;99.90;;;;;;5069159;28;20472;-70
2023/01/02 08:53:45;;;;;;;14.53;3.30;;;12.80;99.90;;;;;;5069118;28;20462;-70
2023/01/02 08:56:20;;;;;;;9.97;3.17;;;12.80;99.90;;;;;;5068756;28;20503;-69
2023/01/02 08:58:50;;;;;;;16.37;3.87;;;12.80;99.90;;;;;;5068983;28;20509;-70
2023/01/02 09:01:17;;;;;;;15.70;3.60;;;12.80;99.90;;;;;;5069409;28;20548;-70
2023/01/02 09:03:43;;;;;;;23.07;3.70;;;12.80;99.90;;;;;;5069099;28;20455;-70
2023/01/02 09:06:10;;;;;;;8.20;3.50;;;12.70;99.90;;;;;;5069042;28;20456;-71
2023/01/02 09:08:38;;;;;;;11.20;4.10;;;12.70;99.90;;;;;;5068666;28;21078;-71
2023/01/02 09:11:11;;;;;;;18.80;4.13;;;12.70;99.90;;;;;;5069063;28;20474;-71
2023/01/02 09:13:37;;;;;;;12.60;3.97;;;12.70;99.90;;;;;;5068680;28;20448;-72
2023/01/02 09:16:05;;;;;;;14.70;3.83;;;12.70;99.90;;;;;;5069116;28;20492;-72
2023/01/02 09:18:31;;;;;;;9.03;3.90;;;12.70;99.90;;;;;;5068987;28;20515;-72
2023/01/02 09:20:58;;;;;;;21.30;3.80;;;12.70;99.90;;;;;;5068121;28;20468;-72
2023/01/02 09:23:24;;;;;;;16.73;4.10;;;12.70;99.90;;;;;;5068775;28;20457;-72
2023/01/02 09:25:52;;;;;;;27.90;4.87;;;12.70;99.90;;;;;;5068457;28;20444;-72
2023/01/02 09:28:19;;;;;;;14.10;3.60;;;12.70;99.90;;;;;;5069210;28;20464;-72
2023/01/02 09:30:46;;;;;;;22.97;4.40;;;12.70;99.90;;;;;;5068352;28;20475;-72
2023/01/02 09:33:12;;;;;;;20.53;4.13;;;12.70;99.90;;;;;;5068552;28;20452;-72
2023/01/02 09:35:39;;;;;;;12.43;3.50;;;12.70;99.90;;;;;;5068246;28;20583;-72
2023/01/02 09:38:05;;;;;;;20.63;4.13;;;12.70;99.90;;;;;;5068244;28;20453;-72
2023/01/02 09:40:34;;;;;;;13.60;4.17;;;12.70;99.90;;;;;;5068264;28;20474;-72
2023/01/02 09:43:03;;;;;;;12.60;3.80;;;12.80;99.90;;;;;;5068452;28;20438;-72
2023/01/02 09:45:30;;;;;;;17.93;3.80;;;12.80;99.90;;;;;;5068292;28;20463;-72
2023/01/02 09:47:59;;;;;;;12.03;3.73;;;12.80;99.90;;;;;;5067922;28;20459;-72
2023/01/02 09:50:29;;;;;;;14.60;5.00;;;12.90;99.90;;;;;;5068258;28;20475;-72
2023/01/02 09:52:58;;;;;;;12.10;3.93;;;12.90;99.90;;;;;;5068245;28;20452;-72
2023/01/02 09:55:35;;;;;;;18.33;4.43;;;12.90;99.90;;;;;;5067993;28;20490;-72
2023/01/02 09:58:10;;;;;;;16.13;4.03;;;12.90;99.90;;;;;;5068565;28;20476;-72
2023/01/02 10:00:38;;;;;;;19.30;4.30;;;12.90;99.90;;;;;;5067623;28;20905;-73
2023/01/02 10:03:17;;;;;;;8.60;4.40;;;12.90;99.90;;;;;;5067649;28;20448;-72
2023/01/02 10:06:04;;;;;;;12.90;4.50;;;12.90;99.90;;;;;;5068013;28;20450;-72
2023/01/02 10:08:37;;;;;;;15.23;4.10;;;13.00;99.90;;;;;;5068217;28;20512;-73
2023/01/02 10:11:14;;;;;;;17.13;4.10;;;13.00;99.90;;;;;;5063384;28;20472;-73
2023/01/02 10:13:47;;;;;;;20.33;4.27;;;12.90;99.90;;;;;;5064977;28;20470;-79
2023/01/02 10:16:19;;;;;;;14.57;4.10;;;12.70;99.90;;;;;;5067213;28;21019;-76
2023/01/02 10:18:50;;;;;;;16.80;4.00;;;12.70;99.90;;;;;;5068673;28;20510;-74
2023/01/02 10:21:21;;;;;;;19.50;4.30;;;12.70;99.90;;;;;;5069100;28;20545;-76
2023/01/02 10:23:51;;;;;;;16.08;3.90;;;12.70;99.90;;;;;;5069445;28;20471;-72
2023/01/02 10:26:20;;;;;;;10.30;3.77;;;12.60;99.90;;;;;;5068082;28;20216;-72
2023/01/02 10:28:56;;;;;;;15.47;4.80;;;12.50;99.90;;;;;;5066598;28;20966;-72
2023/01/02 10:31:28;;;;;;;10.30;3.90;;;12.50;99.90;;;;;;5066456;28;20473;-75
2023/01/02 10:33:57;;;;;;;24.30;4.43;;;12.60;99.90;;;;;;5065303;28;20446;-71
2023/01/02 10:36:26;;;;;;;12.77;4.20;;;12.60;99.90;;;;;;5066502;28;20729;-72
2023/01/02 10:38:57;;;;;;;10.40;4.33;;;12.60;99.90;;;;;;5065047;28;20452;-72
2023/01/02 10:41:25;;;;;;;24.23;4.47;;;12.50;99.90;;;;;;5066735;28;20558;-72
2023/01/02 10:43:57;;;;;;;19.60;4.37;;;12.30;99.90;;;;;;5066637;28;21262;-72
2023/01/02 10:46:23;;;;;;;10.83;3.80;;;12.20;99.90;;;;;;5065638;28;20494;-72
2023/01/02 10:48:50;;;;;;;11.43;4.30;;;12.20;99.90;;;;;;5065778;28;20450;-72
2023/01/02 10:51:17;;;;;;;13.00;4.03;;;12.10;99.90;;;;;;5066295;28;20474;-72
2023/01/02 10:54:00;;;;;;;17.60;3.77;;;12.10;99.90;;;;;;5064701;28;20450;-72
2023/01/02 10:56:30;;;;;;;15.30;4.20;;;12.10;99.90;;;;;;5066216;28;21149;-72
2023/01/02 10:58:59;;;;;;;15.40;5.20;;;12.10;99.90;;;;;;5067013;28;20465;-72
2023/01/02 11:01:25;;;;;;;14.80;4.37;;;12.10;99.90;;;;;;5066854;28;21001;-71
2023/01/02 11:04:11;;;;;;;18.63;4.60;;;12.10;99.90;;;;;;5065692;28;20457;-72
2023/01/02 11:06:50;;;;;;;17.07;4.67;;;12.10;99.90;;;;;;5066863;28;20443;-72
2023/01/02 11:09:19;;;;;;;17.17;3.93;;;12.10;99.90;;;;;;5067144;28;20537;-71
2023/01/02 11:11:50;;;;;;;23.40;4.23;;;12.10;99.90;;;;;;5067152;28;20458;-71
2023/01/02 11:14:22;;;;;;;14.00;3.83;;;12.20;99.90;;;;;;5067280;28;20978;-72
2023/01/02 11:16:50;;;;;;;13.80;4.00;;;12.20;99.90;;;;;;5071954;28;20462;-71
2023/01/02 11:19:22;;;;;;;12.27;4.50;;;12.20;99.90;;;;;;5071083;28;20491;-71
2023/01/02 11:21:52;;;;;;;16.30;4.90;;;12.20;99.90;;;;;;5070383;28;20446;-71
2023/01/02 11:24:25;;;;;;;11.77;4.53;;;12.20;99.90;;;;;;5070831;28;20446;-71
2023/01/02 11:26:53;;;;;;;13.00;4.63;;;12.20;99.90;;;;;;5070687;28;20877;-71
2023/01/02 11:29:28;;;;;;;9.70;4.20;;;12.20;99.90;;;;;;5070979;28;20935;-71
2023/01/02 11:31:57;;;;;;;19.17;5.73;;;12.20;99.90;;;;;;5069846;28;21022;-71
2023/01/02 11:34:27;;;;;;;18.57;4.30;;;12.30;99.90;;;;;;5069170;28;20466;-72
2023/01/02 11:37:06;;;;;;;14.57;4.97;;;12.30;99.90;;;;;;5072658;28;20464;-71
2023/01/02 11:39:36;;;;;;;9.90;4.63;;;12.30;99.90;;;;;;5070501;28;20469;-71
2023/01/02 11:45:08;;;;;;;26.90;5.23;;;12.30;99.90;;;;;;5072060;28;20446;-71
2023/01/02 11:47:39;;;;;;;20.77;4.93;;;12.30;99.90;;;;;;5071502;28;20456;-71
2023/01/02 11:50:06;;;;;;;11.03;4.03;;;12.30;99.90;;;;;;5070896;28;20545;-71
2023/01/02 11:52:42;;;;;;;12.50;4.13;;;12.30;99.90;;;;;;5071842;28;20451;-72
2023/01/02 11:55:20;;;;;;;16.47;4.80;;;12.30;99.90;;;;;;5071060;28;20496;-71
2023/01/02 11:57:54;;;;;;;11.23;4.63;;;12.30;99.90;;;;;;5071509;28;20464;-72
2023/01/02 12:00:26;;;;;;;9.33;4.20;;;12.30;99.90;;;;;;5070710;28;20603;-71
2023/01/02 12:02:53;;;;;;;15.57;5.90;;;12.30;99.90;;;;;;5070814;28;20453;-72
2023/01/02 12:05:32;;;;;;;8.90;4.13;;;12.30;99.90;;;;;;5070794;28;20565;-72
2023/01/02 12:08:04;;;;;;;16.40;4.77;;;12.20;99.90;;;;;;5071011;28;20459;-72
2023/01/02 12:10:43;;;;;;;15.33;4.70;;;12.20;99.90;;;;;;5071168;28;20469;-72
2023/01/02 12:13:23;;;;;;;15.23;4.50;;;12.20;99.90;;;;;;5070246;28;20973;-71
2023/01/02 12:16:15;;;;;;;14.30;4.50;;;12.20;99.90;;;;;;5070203;28;20500;-72
2023/01/02 12:18:58;;;;;;;11.00;4.03;;;12.20;99.90;;;;;;5070635;28;20837;-71
2023/01/02 12:21:26;;;;;;;12.57;4.83;;;12.20;99.90;;;;;;5069832;28;20478;-71
2023/01/02 12:24:23;;;;;;;11.13;5.03;;;12.20;99.90;;;;;;5070426;28;20462;-71
2023/01/02 12:26:58;;;;;;;11.80;3.87;;;12.20;99.90;;;;;;5070551;28;20444;-72
2023/01/02 12:29:35;;;;;;;16.57;4.70;;;12.20;99.90;;;;;;5071304;28;21189;-71
2023/01/02 12:32:34;;;;;;;6.93;4.00;;;12.20;99.90;;;;;;5070146;28;20454;-71
2023/01/02 12:35:16;;;;;;;8.47;4.00;;;12.20;99.90;;;;;;5068911;28;20480;-70
2023/01/02 12:37:48;;;;;;;10.23;4.43;;;12.20;99.90;;;;;;5068502;28;20835;-72
2023/01/02 12:40:39;;;;;;;15.57;4.70;;;12.20;99.90;;;;;;5071149;28;20539;-72
2023/01/02 12:43:45;;;;;;;12.80;3.97;;;12.20;99.90;;;;;;5070548;28;20508;-72
2023/01/02 12:46:26;;;;;;;16.90;3.93;;;12.20;99.90;;;;;;5073171;28;20515;-71
2023/01/02 12:49:13;;;;;;;6.93;3.57;;;12.20;99.90;;;;;;5074089;28;20457;-71
2023/01/02 12:51:46;;;;;;;9.00;4.27;;;12.20;99.90;;;;;;5073568;28;20454;-71
2023/01/02 12:54:35;;;;;;;9.70;4.77;;;12.20;99.90;;;;;;5072500;28;20490;-72
2023/01/02 12:57:13;;;;;;;11.50;4.60;;;12.20;99.90;;;;;;5074291;28;20493;-73
2023/01/02 12:59:56;;;;;;;9.27;4.00;;;12.10;99.90;;;;;;5071657;28;21025;-73